Terminal Aerodrome Forecast
Issued by NWS

Home | Current Version | Previous Version | Graphics & Text | Print | Product List | Glossary On
Versions: 1 2 3 4 5 6 7 8 9 10 11 12 13 14 15 16 17
000
FTUS43 KTOP 211500 AAA
TAFFOE
TAF AMD
KFOE 211535Z 2116/2212 09006KT P6SM BKN012
     FM211700 12007KT 6SM -SHRA BR OVC013
     FM220100 12005KT 5SM -DZ BR OVC006
     FM220700 19007KT 4SM BR OVC020=

USA.gov is the U.S. government's official web portal to all federal, state and local government web resources and services.